Time;durP1;ratioP1;P1;durP2;ratioP2;P2;SDS_P1;SDS_P2;PMS_P1;PMS_P2;Temp;Humidity;BMP_temperature;BMP_pressure;BME280_temperature;BME280_humidity;BME280_pressure;Samples;Min_cycle;Max_cycle;Signal;HPM_P1;HPM_P2
2022/12/12 00:01:40;;;;;;;20.08;14.00;;;2.80;80.70;;;;;;5048258;28;20029;-66
2022/12/12 00:04:06;;;;;;;20.70;12.63;;;2.70;80.60;;;;;;5046870;28;20025;-66
2022/12/12 00:06:31;;;;;;;21.25;13.65;;;2.80;80.60;;;;;;5043760;28;20028;-66
2022/12/12 00:08:57;;;;;;;23.10;15.40;;;2.70;80.50;;;;;;5051397;28;20103;-66
2022/12/12 00:11:24;;;;;;;19.67;12.73;;;2.60;80.40;;;;;;5052900;28;20013;-66
2022/12/12 00:13:50;;;;;;;15.48;10.07;;;2.70;80.80;;;;;;5049255;28;20566;-66
2022/12/12 00:16:16;;;;;;;20.48;13.93;;;2.80;80.80;;;;;;5053099;28;20043;-66
2022/12/12 00:18:42;;;;;;;20.35;14.02;;;2.70;80.60;;;;;;5052189;28;20491;-66
2022/12/12 00:21:14;;;;;;;21.83;14.27;;;2.70;80.40;;;;;;5045428;28;20025;-66
2022/12/12 00:23:40;;;;;;;21.65;14.20;;;2.60;80.40;;;;;;5049469;28;20025;-66
2022/12/12 00:26:10;;;;;;;18.73;12.55;;;2.60;80.60;;;;;;5051892;28;20067;-68
2022/12/12 00:28:36;;;;;;;19.23;12.15;;;2.70;80.80;;;;;;5050965;28;20025;-66
2022/12/12 00:31:02;;;;;;;19.13;13.07;;;2.70;80.70;;;;;;5050752;28;20021;-66
2022/12/12 00:33:27;;;;;;;20.70;13.20;;;2.70;80.80;;;;;;5038435;28;20048;-66
2022/12/12 00:35:54;;;;;;;21.95;13.70;;;2.70;80.80;;;;;;5052412;28;20021;-66
2022/12/12 00:38:22;;;;;;;19.55;12.02;;;2.70;80.80;;;;;;5038805;28;20105;-66
2022/12/12 00:40:48;;;;;;;21.50;13.55;;;2.70;80.80;;;;;;5052965;28;20021;-66
2022/12/12 00:43:14;;;;;;;19.05;13.07;;;2.70;80.70;;;;;;5039614;28;20075;-66
2022/12/12 00:45:39;;;;;;;18.67;12.18;;;2.80;80.70;;;;;;5051870;28;20029;-66
2022/12/12 00:48:05;;;;;;;18.00;12.38;;;2.70;80.70;;;;;;5045894;28;20038;-66
2022/12/12 00:50:32;;;;;;;19.95;13.15;;;2.70;80.70;;;;;;5046053;28;20151;-67
2022/12/12 00:52:58;;;;;;;19.45;12.55;;;2.70;80.80;;;;;;5044488;28;20099;-67
2022/12/12 00:55:24;;;;;;;23.00;14.77;;;2.70;80.80;;;;;;5049207;28;20126;-67
2022/12/12 00:57:50;;;;;;;17.52;11.88;;;2.70;80.80;;;;;;5046391;28;20151;-66
2022/12/12 01:00:17;;;;;;;23.60;15.40;;;2.70;80.80;;;;;;5049127;28;20090;-66
2022/12/12 01:02:43;;;;;;;23.63;14.88;;;2.70;80.60;;;;;;5042114;28;20117;-66
2022/12/12 01:05:09;;;;;;;18.40;12.27;;;2.60;80.70;;;;;;5044783;28;20616;-66
2022/12/12 01:07:35;;;;;;;19.30;12.52;;;2.70;80.90;;;;;;5050484;28;20047;-66
2022/12/12 01:10:00;;;;;;;22.23;14.45;;;2.70;80.90;;;;;;5041596;28;20025;-66
2022/12/12 01:12:26;;;;;;;21.35;14.13;;;2.70;80.90;;;;;;5047061;28;20483;-66
2022/12/12 01:14:52;;;;;;;25.23;15.50;;;2.60;81.00;;;;;;5041264;28;20025;-65
2022/12/12 01:17:17;;;;;;;23.30;14.95;;;2.60;81.00;;;;;;5044305;28;20025;-65
2022/12/12 01:19:43;;;;;;;20.17;13.65;;;2.60;81.00;;;;;;5052217;28;20654;-65
2022/12/12 01:22:08;;;;;;;22.40;14.70;;;2.60;81.00;;;;;;5047497;28;20025;-65
2022/12/12 01:24:34;;;;;;;21.48;14.65;;;2.60;81.00;;;;;;5046916;28;20025;-65
2022/12/12 01:27:00;;;;;;;21.88;14.77;;;2.60;81.00;;;;;;5042190;28;20031;-65
2022/12/12 01:29:26;;;;;;;21.45;13.93;;;2.60;80.90;;;;;;5046643;28;20037;-65
2022/12/12 01:31:52;;;;;;;24.48;16.52;;;2.60;81.00;;;;;;5048814;28;20084;-66
2022/12/12 01:34:17;;;;;;;22.80;14.75;;;2.50;80.80;;;;;;5048343;28;20485;-66
2022/12/12 01:36:43;;;;;;;22.25;14.45;;;2.50;80.90;;;;;;5047442;28;20020;-66
2022/12/12 01:39:09;;;;;;;24.25;15.02;;;2.50;81.00;;;;;;5051468;28;20087;-66
2022/12/12 01:41:34;;;;;;;24.23;15.27;;;2.50;81.10;;;;;;5041425;28;20059;-66
2022/12/12 01:44:03;;;;;;;22.67;14.70;;;2.50;81.20;;;;;;5048414;28;20104;-66
2022/12/12 01:46:39;;;;;;;25.05;16.75;;;2.50;81.30;;;;;;5044838;28;20028;-66
2022/12/12 01:49:16;;;;;;;23.08;14.60;;;2.50;81.30;;;;;;5051369;28;20128;-66
2022/12/12 01:51:42;;;;;;;22.13;14.68;;;2.50;82.00;;;;;;5045192;28;20100;-67
2022/12/12 01:54:15;;;;;;;23.92;16.10;;;2.50;81.40;;;;;;5051090;28;20013;-66
2022/12/12 01:56:43;;;;;;;23.35;15.95;;;2.50;81.50;;;;;;5046255;28;20021;-66
2022/12/12 01:59:12;;;;;;;22.30;15.05;;;2.50;81.50;;;;;;5050682;28;20048;-66
2022/12/12 02:01:38;;;;;;;24.35;15.85;;;2.40;81.60;;;;;;5042092;28;20025;-66
2022/12/12 02:04:06;;;;;;;25.70;16.35;;;2.40;81.60;;;;;;5047970;28;20079;-66
2022/12/12 02:06:33;;;;;;;23.38;15.63;;;2.40;81.60;;;;;;5044581;28;20028;-66
2022/12/12 02:09:03;;;;;;;19.30;12.77;;;2.40;81.60;;;;;;5050826;28;20021;-66
2022/12/12 02:11:31;;;;;;;23.80;15.23;;;2.40;81.70;;;;;;5042261;28;20387;-66
2022/12/12 02:13:57;;;;;;;21.27;13.85;;;2.40;81.70;;;;;;5049774;28;20028;-66
2022/12/12 02:16:53;;;;;;;20.45;13.88;;;2.40;81.70;;;;;;5043931;28;20032;-66
2022/12/12 02:19:37;;;;;;;23.10;14.77;;;2.40;81.60;;;;;;5051127;28;20121;-66
2022/12/12 02:22:13;;;;;;;19.90;13.23;;;2.40;81.60;;;;;;5047213;28;20107;-66
2022/12/12 02:25:20;;;;;;;24.10;15.50;;;2.40;81.60;;;;;;5044526;28;20033;-66
2022/12/12 02:28:06;;;;;;;23.10;15.30;;;2.40;81.60;;;;;;5022846;28;20151;-66
2022/12/12 02:31:07;;;;;;;21.27;14.20;;;2.30;81.60;;;;;;5035604;28;20017;-67
2022/12/12 02:34:06;;;;;;;23.27;15.57;;;2.40;81.90;;;;;;5048092;28;20048;-66
2022/12/12 02:36:56;;;;;;;23.65;14.95;;;2.40;81.80;;;;;;5046778;28;20472;-66
2022/12/12 02:39:31;;;;;;;20.50;13.27;;;2.40;81.80;;;;;;5041385;28;20487;-66
2022/12/12 02:42:09;;;;;;;21.83;14.23;;;2.40;81.80;;;;;;5046906;28;20495;-67
2022/12/12 02:44:42;;;;;;;24.85;16.15;;;2.40;82.50;;;;;;5033882;28;20029;-67
2022/12/12 02:47:39;;;;;;;28.30;16.92;;;2.40;81.80;;;;;;5042977;28;20115;-67
2022/12/12 02:50:10;;;;;;;24.83;15.55;;;2.40;81.90;;;;;;5046336;28;20065;-67
2022/12/12 02:52:35;;;;;;;21.40;13.50;;;2.40;81.80;;;;;;5049516;28;20040;-67
2022/12/12 02:55:01;;;;;;;22.42;15.00;;;2.40;81.80;;;;;;5043610;28;20022;-67
2022/12/12 02:57:27;;;;;;;20.58;13.70;;;2.30;81.60;;;;;;5042505;28;20052;-66
2022/12/12 02:59:54;;;;;;;22.10;14.30;;;2.30;81.70;;;;;;5047341;28;20483;-66
2022/12/12 03:02:23;;;;;;;20.85;14.10;;;2.30;81.70;;;;;;5038806;28;20032;-66
2022/12/12 03:08:42;;;;;;;21.90;14.35;;;2.30;81.70;;;;;;5036008;28;20849;-66
2022/12/12 03:11:14;;;;;;;22.27;14.70;;;2.30;81.70;;;;;;5042148;28;20049;-66
2022/12/12 03:13:55;;;;;;;21.38;13.60;;;2.40;81.70;;;;;;5044362;28;20383;-66
2022/12/12 03:16:28;;;;;;;21.05;13.70;;;2.40;81.70;;;;;;5049297;28;20033;-66
2022/12/12 03:19:09;;;;;;;20.35;13.15;;;2.40;81.60;;;;;;5038214;28;20021;-66
2022/12/12 03:21:47;;;;;;;20.35;13.43;;;2.40;81.60;;;;;;5042451;28;20028;-66
2022/12/12 03:24:37;;;;;;;19.52;12.93;;;2.40;81.50;;;;;;5047760;28;20033;-66
2022/12/12 03:27:08;;;;;;;21.17;14.25;;;2.30;81.60;;;;;;5048701;28;20033;-66
2022/12/12 03:29:40;;;;;;;20.83;13.38;;;2.30;81.60;;;;;;5042510;28;20056;-66
2022/12/12 03:32:15;;;;;;;22.80;14.20;;;2.30;81.60;;;;;;5037586;28;20013;-66
2022/12/12 03:34:46;;;;;;;19.50;13.30;;;2.40;81.70;;;;;;5043754;28;20020;-67
2022/12/12 03:37:21;;;;;;;18.98;12.32;;;2.50;81.80;;;;;;5048879;28;20025;-67
2022/12/12 03:39:56;;;;;;;17.52;11.70;;;2.50;81.70;;;;;;5046570;28;20025;-66
2022/12/12 03:42:25;;;;;;;16.17;11.32;;;2.60;81.70;;;;;;5044983;28;20029;-66
2022/12/12 03:45:06;;;;;;;16.60;11.40;;;2.60;81.50;;;;;;5046581;28;20100;-66
2022/12/12 03:47:41;;;;;;;16.35;11.25;;;2.60;81.50;;;;;;5030014;28;20029;-66
2022/12/12 03:50:15;;;;;;;15.13;10.00;;;2.70;81.40;;;;;;5037888;28;20021;-66
2022/12/12 03:52:53;;;;;;;16.70;11.48;;;2.60;81.30;;;;;;5038297;28;20409;-66
2022/12/12 03:56:02;;;;;;;15.40;9.88;;;2.60;81.30;;;;;;5040978;28;20026;-65
2022/12/12 03:58:31;;;;;;;15.77;10.15;;;2.60;81.30;;;;;;5053940;28;20033;-66
2022/12/12 04:00:59;;;;;;;15.20;9.57;;;2.60;81.30;;;;;;5045120;28;20115;-66
2022/12/12 04:03:38;;;;;;;16.33;10.75;;;2.60;81.30;;;;;;5044896;28;20155;-66
2022/12/12 04:06:32;;;;;;;15.32;10.50;;;2.60;81.30;;;;;;5046576;28;20036;-65
2022/12/12 04:15:18;;;;;;;18.30;12.23;;;2.40;81.30;;;;;;5045190;28;20517;-66
2022/12/12 04:18:13;;;;;;;16.83;10.70;;;2.30;81.50;;;;;;5042096;28;20021;-67
2022/12/12 04:24:04;;;;;;;15.90;10.48;;;2.30;81.60;;;;;;5040218;28;20699;-66
2022/12/12 04:26:39;;;;;;;17.50;10.65;;;2.30;81.50;;;;;;5041517;28;20112;-66
2022/12/12 04:29:16;;;;;;;15.32;10.10;;;2.30;81.50;;;;;;5036219;28;20030;-67
2022/12/12 04:31:47;;;;;;;15.15;9.95;;;2.20;81.50;;;;;;5041027;28;20021;-67
2022/12/12 04:34:21;;;;;;;17.63;11.32;;;2.20;81.40;;;;;;5042009;28;20438;-67
2022/12/12 04:36:48;;;;;;;17.30;11.30;;;2.10;81.40;;;;;;5038978;28;20044;-65
2022/12/12 04:39:17;;;;;;;17.33;10.90;;;2.20;81.50;;;;;;5035091;28;20029;-66
2022/12/12 04:41:46;;;;;;;17.38;11.75;;;2.20;81.40;;;;;;5041453;28;20017;-66
2022/12/12 04:44:15;;;;;;;16.45;10.85;;;2.10;81.20;;;;;;5040979;28;20033;-67
2022/12/12 04:46:43;;;;;;;17.27;11.10;;;2.10;81.10;;;;;;5040589;28;20067;-66
2022/12/12 04:49:21;;;;;;;16.02;10.38;;;2.10;81.30;;;;;;5040087;28;20025;-65
2022/12/12 04:51:51;;;;;;;16.83;11.15;;;2.00;81.40;;;;;;5041747;28;20021;-65
2022/12/12 04:54:31;;;;;;;17.83;10.52;;;2.00;81.40;;;;;;5044587;28;20029;-66
2022/12/12 04:57:00;;;;;;;14.52;9.73;;;2.00;81.40;;;;;;5043943;28;20021;-66
2022/12/12 04:59:27;;;;;;;16.70;10.85;;;1.90;81.40;;;;;;5046029;28;20052;-67
2022/12/12 05:02:13;;;;;;;16.02;10.90;;;1.90;81.40;;;;;;5036460;28;20113;-66
2022/12/12 05:04:54;;;;;;;14.88;9.60;;;1.90;81.40;;;;;;5044948;28;20025;-67
2022/12/12 05:07:28;;;;;;;15.77;10.38;;;1.90;81.40;;;;;;5050104;28;20096;-66
2022/12/12 05:09:55;;;;;;;18.60;10.82;;;1.90;81.50;;;;;;5048299;28;20701;-65
2022/12/12 05:12:21;;;;;;;17.63;11.32;;;1.90;81.40;;;;;;5046905;28;20055;-66
2022/12/12 05:14:47;;;;;;;18.15;11.70;;;1.80;81.40;;;;;;5048160;28;20535;-67
2022/12/12 05:17:19;;;;;;;18.65;12.00;;;1.80;81.50;;;;;;5049018;28;20052;-66
2022/12/12 05:19:44;;;;;;;17.35;11.90;;;1.70;81.80;;;;;;5049511;28;20503;-66
2022/12/12 05:22:10;;;;;;;17.45;11.40;;;1.60;82.50;;;;;;5047858;28;20029;-66
2022/12/12 05:24:36;;;;;;;18.27;12.50;;;1.60;82.10;;;;;;5051799;28;20021;-66
2022/12/12 05:27:01;;;;;;;18.27;11.65;;;1.60;82.20;;;;;;5048781;28;20031;-66
2022/12/12 05:29:27;;;;;;;16.55;11.05;;;1.70;82.10;;;;;;5035677;28;20400;-66
2022/12/12 05:31:52;;;;;;;18.23;11.70;;;1.70;81.90;;;;;;5047752;28;20044;-66
2022/12/12 05:34:18;;;;;;;16.60;10.77;;;1.60;81.80;;;;;;5048620;28;20380;-66
2022/12/12 05:36:44;;;;;;;17.20;11.55;;;1.60;81.70;;;;;;5043988;28;20013;-66
2022/12/12 05:39:09;;;;;;;18.75;11.20;;;1.60;81.80;;;;;;5045304;28;20487;-65
2022/12/12 05:41:35;;;;;;;15.90;10.30;;;1.60;81.90;;;;;;5045230;28;20086;-67
2022/12/12 05:44:00;;;;;;;18.33;11.38;;;1.50;81.90;;;;;;5039870;28;20041;-66
2022/12/12 05:46:26;;;;;;;17.67;12.00;;;1.60;81.90;;;;;;5048568;28;20031;-66
2022/12/12 05:48:52;;;;;;;17.92;11.88;;;1.50;81.90;;;;;;5045721;28;20152;-66
2022/12/12 05:51:18;;;;;;;20.65;13.48;;;1.50;81.90;;;;;;5042093;28;20033;-66
2022/12/12 05:53:44;;;;;;;19.67;12.73;;;1.50;81.90;;;;;;5043580;28;20020;-66
2022/12/12 05:56:11;;;;;;;19.23;12.95;;;1.40;82.00;;;;;;5042593;28;20021;-66
2022/12/12 05:58:40;;;;;;;18.38;11.73;;;1.40;82.20;;;;;;5042070;28;20045;-66
2022/12/12 06:01:06;;;;;;;17.67;11.38;;;1.40;82.10;;;;;;5035765;28;20136;-67
2022/12/12 06:03:32;;;;;;;20.00;11.82;;;1.40;82.10;;;;;;5043409;28;20108;-66
2022/12/12 06:05:58;;;;;;;18.17;11.93;;;1.40;82.10;;;;;;5042165;28;20029;-66
2022/12/12 06:08:24;;;;;;;20.73;13.27;;;1.40;81.90;;;;;;5040643;28;20491;-66
2022/12/12 06:10:49;;;;;;;19.60;12.38;;;1.40;81.90;;;;;;5037612;28;20114;-67
2022/12/12 06:13:15;;;;;;;18.42;11.50;;;1.30;82.10;;;;;;5036231;28;20029;-66
2022/12/12 06:15:41;;;;;;;19.58;12.25;;;1.30;82.30;;;;;;5040460;28;20045;-66
2022/12/12 06:18:08;;;;;;;18.60;12.00;;;1.30;83.10;;;;;;5042670;28;20021;-66
2022/12/12 06:20:34;;;;;;;19.67;11.68;;;1.30;82.30;;;;;;5037474;28;20487;-66
2022/12/12 06:23:00;;;;;;;19.85;12.32;;;1.30;82.20;;;;;;5041248;28;20060;-66
2022/12/12 06:25:26;;;;;;;17.98;11.35;;;1.30;82.80;;;;;;5039898;28;20458;-66
2022/12/12 06:27:51;;;;;;;20.50;13.32;;;1.30;82.10;;;;;;5040624;28;20033;-67
2022/12/12 06:30:17;;;;;;;18.23;11.93;;;1.30;82.00;;;;;;5037346;28;20656;-66
2022/12/12 06:32:43;;;;;;;18.65;12.63;;;1.30;82.00;;;;;;5039152;28;20026;-65
2022/12/12 06:35:10;;;;;;;17.95;11.65;;;1.20;82.20;;;;;;5043534;28;20483;-65
2022/12/12 06:37:36;;;;;;;17.80;11.93;;;1.10;82.30;;;;;;5039741;28;20036;-66
2022/12/12 06:40:02;;;;;;;18.92;12.05;;;1.20;82.50;;;;;;5042016;28;20033;-66
2022/12/12 06:42:28;;;;;;;20.88;13.55;;;1.20;82.50;;;;;;5041576;28;20029;-66
2022/12/12 06:44:54;;;;;;;18.52;11.63;;;1.20;82.30;;;;;;5040325;28;20029;-66
2022/12/12 06:47:19;;;;;;;19.88;12.75;;;1.20;82.20;;;;;;5043390;28;20244;-66
2022/12/12 06:49:45;;;;;;;21.08;13.70;;;1.10;82.00;;;;;;5042364;28;20072;-66
2022/12/12 06:52:11;;;;;;;20.63;13.13;;;1.10;82.10;;;;;;5044290;28;20033;-66
2022/12/12 06:54:36;;;;;;;21.73;13.40;;;1.00;82.20;;;;;;5044089;28;20060;-66
2022/12/12 06:57:02;;;;;;;20.60;12.43;;;0.90;82.40;;;;;;5042137;28;20481;-66
2022/12/12 06:59:29;;;;;;;20.90;12.88;;;0.80;82.60;;;;;;5043915;28;20024;-66
2022/12/12 07:01:55;;;;;;;22.92;13.63;;;0.80;82.90;;;;;;5035635;28;20033;-66
2022/12/12 07:04:21;;;;;;;20.27;12.98;;;0.80;82.80;;;;;;5045558;28;20037;-66
2022/12/12 07:06:46;;;;;;;21.77;13.30;;;0.80;82.80;;;;;;5046557;28;20361;-67
2022/12/12 07:09:12;;;;;;;20.98;13.60;;;0.80;82.90;;;;;;5041413;28;20056;-66
2022/12/12 07:11:39;;;;;;;21.00;13.63;;;0.80;82.80;;;;;;5046049;28;20110;-66
2022/12/12 07:14:06;;;;;;;20.35;12.10;;;0.80;82.70;;;;;;5035501;28;20048;-66
2022/12/12 07:16:32;;;;;;;20.83;12.90;;;0.80;82.80;;;;;;5034367;28;20152;-66
2022/12/12 07:18:58;;;;;;;18.52;12.48;;;0.80;82.70;;;;;;5034988;28;20013;-66
2022/12/12 07:21:24;;;;;;;21.27;13.60;;;0.80;82.70;;;;;;5040931;28;20029;-66
2022/12/12 07:23:50;;;;;;;20.58;13.18;;;0.80;82.60;;;;;;5035558;28;20021;-66
2022/12/12 07:26:19;;;;;;;21.90;13.65;;;0.90;82.60;;;;;;5039764;28;20024;-66
2022/12/12 07:28:45;;;;;;;19.63;12.25;;;0.90;82.50;;;;;;5043213;28;20037;-66
2022/12/12 07:31:14;;;;;;;20.33;12.93;;;0.90;82.50;;;;;;5042594;28;20107;-66
2022/12/12 07:33:41;;;;;;;19.98;12.63;;;0.90;82.40;;;;;;5047154;28;20071;-66
2022/12/12 07:36:07;;;;;;;18.73;12.07;;;0.90;82.30;;;;;;5040329;28;20032;-67
2022/12/12 07:38:34;;;;;;;23.20;13.73;;;0.80;82.40;;;;;;5039920;28;20033;-66
2022/12/12 07:41:08;;;;;;;23.05;13.90;;;0.80;82.60;;;;;;5045589;28;20026;-66
2022/12/12 07:43:35;;;;;;;22.67;14.07;;;0.80;82.70;;;;;;5034469;28;20131;-66
2022/12/12 07:46:01;;;;;;;20.25;12.80;;;0.70;82.60;;;;;;5044263;28;20071;-66
2022/12/12 07:48:27;;;;;;;20.45;12.43;;;0.80;82.90;;;;;;5048492;28;20518;-66
2022/12/12 07:50:53;;;;;;;21.60;13.32;;;0.80;82.90;;;;;;5045248;28;20071;-66
2022/12/12 07:53:19;;;;;;;24.23;14.43;;;0.80;82.90;;;;;;5036219;28;20668;-66
2022/12/12 07:55:44;;;;;;;21.50;13.20;;;0.80;82.90;;;;;;5038224;28;20018;-67
2022/12/12 07:58:10;;;;;;;20.40;12.93;;;0.80;82.90;;;;;;5040781;28;20033;-67
2022/12/12 08:00:35;;;;;;;21.27;12.82;;;0.80;82.90;;;;;;5045721;28;20024;-66
2022/12/12 08:03:01;;;;;;;19.98;13.18;;;0.80;82.80;;;;;;5037137;28;20415;-67
2022/12/12 08:05:27;;;;;;;20.52;12.57;;;0.90;82.90;;;;;;5041675;28;20035;-66
2022/12/12 08:07:53;;;;;;;20.77;12.40;;;0.90;82.90;;;;;;5040499;28;20017;-66
2022/12/12 08:10:19;;;;;;;21.95;12.98;;;0.90;82.90;;;;;;5040875;28;20034;-66
2022/12/12 08:12:44;;;;;;;25.30;15.55;;;1.00;82.70;;;;;;5041518;28;20126;-66
2022/12/12 08:15:15;;;;;;;22.55;14.40;;;1.00;82.60;;;;;;5037479;28;20571;-66
2022/12/12 08:17:41;;;;;;;22.85;13.20;;;1.00;82.70;;;;;;5035711;28;20044;-66
2022/12/12 08:20:07;;;;;;;22.80;14.05;;;1.10;82.70;;;;;;5040387;28;20406;-66
2022/12/12 08:22:33;;;;;;;21.55;13.23;;;1.10;82.60;;;;;;5041683;28;20033;-67
2022/12/12 08:24:59;;;;;;;25.85;14.93;;;1.10;82.60;;;;;;5038626;28;20030;-67
2022/12/12 08:27:31;;;;;;;26.38;16.02;;;1.10;82.50;;;;;;5043180;28;20032;-66
2022/12/12 08:29:57;;;;;;;25.52;15.00;;;1.10;82.50;;;;;;5040887;28;20033;-66
2022/12/12 08:32:22;;;;;;;22.00;13.65;;;1.10;82.60;;;;;;5045599;28;20074;-66
2022/12/12 08:34:48;;;;;;;23.98;14.23;;;1.20;82.70;;;;;;5036901;28;20100;-66
2022/12/12 08:37:13;;;;;;;22.40;14.60;;;1.20;82.60;;;;;;5039760;28;20022;-65
2022/12/12 08:39:39;;;;;;;22.77;13.32;;;1.20;82.60;;;;;;5039582;28;20032;-66
2022/12/12 08:42:04;;;;;;;26.83;16.55;;;1.20;82.60;;;;;;5040637;28;20079;-65
2022/12/12 08:44:31;;;;;;;25.50;15.45;;;1.30;82.50;;;;;;5045909;28;20025;-65
2022/12/12 08:46:56;;;;;;;21.42;13.02;;;1.20;82.40;;;;;;5042265;28;20628;-65
2022/12/12 08:49:22;;;;;;;24.02;14.10;;;1.30;82.50;;;;;;5039059;28;20101;-65
2022/12/12 08:51:49;;;;;;;21.08;13.40;;;1.30;82.40;;;;;;5045410;28;20052;-66
2022/12/12 08:54:15;;;;;;;23.25;14.50;;;1.30;82.40;;;;;;5043262;28;20104;-65
2022/12/12 08:56:40;;;;;;;24.10;14.48;;;1.30;82.30;;;;;;5040364;28;20603;-65
2022/12/12 08:59:06;;;;;;;22.50;13.18;;;1.30;82.30;;;;;;5044188;28;20342;-65
2022/12/12 09:01:32;;;;;;;22.30;13.55;;;1.40;82.40;;;;;;5040322;28;20021;-65
2022/12/12 09:03:58;;;;;;;22.17;13.35;;;1.40;82.40;;;;;;5042235;28;20052;-65
2022/12/12 09:06:24;;;;;;;25.98;15.35;;;1.40;82.40;;;;;;5044522;28;20017;-65
2022/12/12 09:08:51;;;;;;;26.13;16.77;;;1.30;82.30;;;;;;5043912;28;20032;-66
2022/12/12 09:11:17;;;;;;;25.50;15.32;;;1.30;82.40;;;;;;5048117;28;20032;-65
2022/12/12 09:13:43;;;;;;;26.98;16.15;;;1.30;82.40;;;;;;5045736;28;20047;-65
2022/12/12 09:16:10;;;;;;;25.85;15.57;;;1.30;82.50;;;;;;5045227;28;20463;-65
2022/12/12 09:18:37;;;;;;;20.80;12.98;;;1.30;82.50;;;;;;5045043;28;20036;-65
2022/12/12 09:21:03;;;;;;;25.05;14.75;;;1.40;82.40;;;;;;5041756;28;20036;-65
2022/12/12 09:23:29;;;;;;;24.88;15.38;;;1.30;82.30;;;;;;5039368;28;20447;-65
2022/12/12 09:25:55;;;;;;;30.08;18.58;;;1.30;82.30;;;;;;5044877;28;20040;-65
2022/12/12 09:28:23;;;;;;;29.65;17.17;;;1.30;82.20;;;;;;5039251;28;20069;-65
2022/12/12 09:30:49;;;;;;;27.95;15.90;;;1.30;82.10;;;;;;5039627;28;20025;-65
2022/12/12 09:33:16;;;;;;;26.48;16.35;;;1.20;82.10;;;;;;5046860;28;20064;-65
2022/12/12 09:35:42;;;;;;;26.70;16.55;;;1.30;82.20;;;;;;5047116;28;20024;-65
2022/12/12 09:38:09;;;;;;;27.85;17.42;;;1.30;82.20;;;;;;5044140;28;20025;-65
2022/12/12 09:40:50;;;;;;;28.33;16.33;;;1.30;82.10;;;;;;5039832;28;20039;-65
2022/12/12 09:43:21;;;;;;;32.10;17.65;;;1.20;82.00;;;;;;5045705;28;20086;-65
2022/12/12 09:45:47;;;;;;;26.27;15.05;;;1.20;82.00;;;;;;5047164;28;20025;-66
2022/12/12 09:48:34;;;;;;;29.02;16.20;;;1.30;82.10;;;;;;5051218;28;20368;-65
2022/12/12 09:51:00;;;;;;;24.23;13.95;;;1.20;82.00;;;;;;5045750;28;20025;-65
2022/12/12 09:53:26;;;;;;;29.25;17.33;;;1.30;82.00;;;;;;5047675;28;20044;-65
2022/12/12 09:56:16;;;;;;;29.02;16.38;;;1.20;81.80;;;;;;5050342;28;20100;-65
2022/12/12 09:58:48;;;;;;;27.75;15.65;;;1.20;81.90;;;;;;5050000;28;20475;-65
2022/12/12 10:01:16;;;;;;;25.40;14.82;;;1.20;81.80;;;;;;5035593;28;20415;-65
2022/12/12 10:03:45;;;;;;;27.95;16.58;;;1.20;81.80;;;;;;5042522;28;20028;-65
2022/12/12 10:06:12;;;;;;;31.67;16.65;;;1.20;81.70;;;;;;5047958;28;20064;-65
2022/12/12 10:09:03;;;;;;;26.60;15.65;;;1.20;81.70;;;;;;5044945;28;20029;-65
2022/12/12 10:11:50;;;;;;;33.15;18.17;;;1.20;81.70;;;;;;5042380;28;20521;-65
2022/12/12 10:14:35;;;;;;;28.13;16.77;;;1.20;81.60;;;;;;5042437;28;20541;-66
2022/12/12 10:17:06;;;;;;;30.55;17.63;;;1.30;81.60;;;;;;5050476;28;20021;-65
2022/12/12 10:19:41;;;;;;;31.73;18.80;;;1.20;81.40;;;;;;5042409;28;20029;-65
2022/12/12 10:22:17;;;;;;;27.02;16.55;;;1.30;81.40;;;;;;5050578;28;20103;-65
2022/12/12 10:24:47;;;;;;;26.35;15.23;;;1.30;81.30;;;;;;5044408;28;20017;-65
2022/12/12 10:27:14;;;;;;;24.63;15.10;;;1.30;81.20;;;;;;5050580;28;20028;-66
2022/12/12 10:29:45;;;;;;;33.47;19.65;;;1.40;81.20;;;;;;5041816;28;20048;-67
2022/12/12 10:32:21;;;;;;;25.47;15.33;;;1.40;81.10;;;;;;5043495;28;20484;-66
2022/12/12 10:34:55;;;;;;;28.73;17.40;;;1.40;81.00;;;;;;5042318;28;20283;-66
2022/12/12 10:37:39;;;;;;;30.27;17.17;;;1.30;80.90;;;;;;5049534;28;20032;-66
2022/12/12 10:40:38;;;;;;;23.52;13.95;;;1.40;81.10;;;;;;5047482;28;20045;-66
2022/12/12 10:43:21;;;;;;;27.38;16.73;;;1.50;81.00;;;;;;5044347;28;20109;-66
2022/12/12 10:45:50;;;;;;;26.35;16.05;;;1.50;80.80;;;;;;5046588;28;20032;-67
2022/12/12 10:48:15;;;;;;;29.20;15.80;;;1.50;80.80;;;;;;5043121;28;20048;-66
2022/12/12 10:50:45;;;;;;;27.30;16.15;;;1.50;80.80;;;;;;5037240;28;20106;-67
2022/12/12 10:53:12;;;;;;;25.20;14.70;;;1.60;80.70;;;;;;5037794;28;20030;-66
2022/12/12 10:55:43;;;;;;;23.95;14.57;;;1.60;80.70;;;;;;5040395;28;20029;-66
2022/12/12 10:58:09;;;;;;;27.40;15.93;;;1.60;80.60;;;;;;5044196;28;20017;-67
2022/12/12 11:00:38;;;;;;;29.70;15.88;;;1.60;80.20;;;;;;5041535;28;20040;-66
2022/12/12 11:03:37;;;;;;;24.58;14.18;;;1.60;80.00;;;;;;5043611;28;20479;-66
2022/12/12 11:06:11;;;;;;;21.80;13.27;;;1.60;80.00;;;;;;5030680;28;20046;-66
2022/12/12 11:08:38;;;;;;;23.52;14.30;;;1.70;80.00;;;;;;5047195;28;20090;-66
2022/12/12 11:11:05;;;;;;;22.95;13.60;;;1.80;79.90;;;;;;5046738;28;20025;-67
2022/12/12 11:13:37;;;;;;;23.55;14.23;;;1.80;79.70;;;;;;5046494;28;20025;-67
2022/12/12 11:16:06;;;;;;;;;;;1.90;79.50;;;;;;5041638;28;20025;-67
2022/12/12 11:18:32;;;;;;;23.02;13.73;;;1.90;79.40;;;;;;5048286;28;19962;-67
2022/12/12 11:21:07;;;;;;;20.77;12.55;;;1.90;79.20;;;;;;5044389;28;20024;-66
2022/12/12 11:23:35;;;;;;;21.65;12.07;;;1.90;79.30;;;;;;5041298;28;20036;-67
2022/12/12 11:26:12;;;;;;;20.75;12.57;;;2.00;79.30;;;;;;5049401;28;20021;-66
2022/12/12 11:28:39;;;;;;;22.73;13.32;;;2.10;79.10;;;;;;5038436;28;20116;-66
2022/12/12 11:31:09;;;;;;;20.27;12.00;;;2.10;78.70;;;;;;5042976;28;20022;-66
2022/12/12 11:33:44;;;;;;;20.88;12.85;;;2.10;78.50;;;;;;5045940;28;20021;-66
2022/12/12 11:36:15;;;;;;;24.52;13.90;;;2.10;78.50;;;;;;5049111;28;20013;-66
2022/12/12 11:38:50;;;;;;;23.40;13.02;;;2.10;78.10;;;;;;5046715;28;20025;-66
2022/12/12 11:41:16;;;;;;;22.17;13.98;;;2.20;78.00;;;;;;5042085;28;20037;-66
2022/12/12 11:43:47;;;;;;;23.55;13.43;;;2.20;77.70;;;;;;5048026;28;20029;-66
2022/12/12 11:46:13;;;;;;;20.90;13.05;;;2.30;77.50;;;;;;5041713;28;20647;-66
2022/12/12 11:48:46;;;;;;;23.77;13.82;;;2.30;77.40;;;;;;5048392;28;20032;-66
2022/12/12 11:51:13;;;;;;;25.98;15.50;;;2.50;77.30;;;;;;5043856;28;20376;-66
2022/12/12 11:53:42;;;;;;;22.35;13.50;;;2.50;76.90;;;;;;5045332;28;20048;-66
2022/12/12 11:56:41;;;;;;;24.83;14.88;;;2.50;76.70;;;;;;5043182;28;20026;-66
2022/12/12 11:59:07;;;;;;;22.45;13.32;;;2.60;76.50;;;;;;5047905;28;20021;-66
2022/12/12 12:02:04;;;;;;;20.83;12.18;;;2.60;76.30;;;;;;5052910;28;20063;-67
2022/12/12 12:04:57;;;;;;;20.15;11.50;;;2.70;76.50;;;;;;5042521;28;20100;-66
2022/12/12 12:07:32;;;;;;;20.20;12.15;;;2.70;76.20;;;;;;5053036;28;20009;-66
2022/12/12 12:10:17;;;;;;;21.67;13.02;;;2.80;76.40;;;;;;5047643;28;20561;-66
2022/12/12 12:12:57;;;;;;;23.45;13.77;;;2.90;76.30;;;;;;5045321;28;20392;-66
2022/12/12 12:15:40;;;;;;;20.25;12.00;;;2.90;75.60;;;;;;5042448;28;20021;-66
2022/12/12 12:18:26;;;;;;;23.58;13.70;;;2.90;75.30;;;;;;5052969;28;20147;-66
2022/12/12 12:21:06;;;;;;;21.02;12.88;;;2.90;75.40;;;;;;5045540;28;20525;-66
2022/12/12 12:23:31;;;;;;;20.88;12.02;;;3.00;76.00;;;;;;5052180;28;20095;-67
2022/12/12 12:26:13;;;;;;;23.83;13.43;;;4.50;76.10;;;;;;5047096;28;20441;-65
2022/12/12 12:28:50;;;;;;;21.90;12.05;;;6.00;72.50;;;;;;5036105;28;20060;-65
2022/12/12 12:31:28;;;;;;;22.35;12.50;;;7.20;68.60;;;;;;5044741;28;20033;-65
2022/12/12 12:34:09;;;;;;;21.55;12.45;;;8.10;65.80;;;;;;5050261;28;20075;-65
2022/12/12 12:37:19;;;;;;;20.05;11.75;;;8.50;63.60;;;;;;5046895;28;20395;-65
2022/12/12 12:40:03;;;;;;;21.98;11.48;;;9.10;62.40;;;;;;5042519;28;20060;-66
2022/12/12 12:43:02;;;;;;;17.15;10.20;;;9.60;61.10;;;;;;5041640;28;20060;-67
2022/12/12 12:45:56;;;;;;;19.60;11.68;;;9.90;59.80;;;;;;5045637;28;20063;-67
2022/12/12 12:48:36;;;;;;;18.10;10.32;;;10.00;58.00;;;;;;5053016;28;20079;-66
2022/12/12 12:51:26;;;;;;;15.05;9.80;;;10.30;58.70;;;;;;5046428;28;20147;-66
2022/12/12 12:53:51;;;;;;;17.17;9.27;;;10.50;58.70;;;;;;5052368;28;20096;-66
2022/12/12 12:56:25;;;;;;;16.17;10.50;;;10.70;58.60;;;;;;5052030;28;20103;-66
2022/12/12 12:58:54;;;;;;;18.98;10.75;;;10.60;57.80;;;;;;5044073;28;20087;-65
2022/12/12 13:01:32;;;;;;;14.90;9.68;;;10.50;57.30;;;;;;5044334;28;20033;-66
2022/12/12 13:04:01;;;;;;;15.73;9.27;;;10.30;56.30;;;;;;5051869;28;20031;-66
2022/12/12 13:06:44;;;;;;;16.42;10.65;;;10.30;56.90;;;;;;5047720;28;20028;-66
2022/12/12 13:09:39;;;;;;;14.05;9.13;;;9.80;56.00;;;;;;5049447;28;20472;-66
2022/12/12 13:12:38;;;;;;;14.50;9.40;;;9.70;57.10;;;;;;5041338;28;20039;-66